Time;durP1;ratioP1;P1;durP2;ratioP2;P2;SDS_P1;SDS_P2;PMS_P1;PMS_P2;Temp;Humidity;BMP_temperature;BMP_pressure;BME280_temperature;BME280_humidity;BME280_pressure;Samples;Min_cycle;Max_cycle;Signal;HPM_P1;HPM_P2
2021/08/17 00:01:21;;;;;;;8.25;5.03;;;;;;;22.73;73.30;101035.54;1729969;80;21149;-85
2021/08/17 00:03:48;;;;;;;8.60;5.37;;;;;;;22.64;73.62;101035.21;1727465;83;20958;-83
2021/08/17 00:06:14;;;;;;;8.63;5.17;;;;;;;22.56;73.79;101038.69;1727654;83;20874;-83
2021/08/17 00:08:41;;;;;;;10.10;5.22;;;;;;;22.44;74.08;101032.12;1728247;83;20974;-83
2021/08/17 00:11:10;;;;;;;8.03;5.60;;;;;;;22.35;74.44;101030.98;1728602;83;20964;-83
2021/08/17 00:13:40;;;;;;;11.78;5.75;;;;;;;22.25;74.92;101036.94;1729307;83;22038;-82
2021/08/17 00:16:07;;;;;;;12.18;5.87;;;;;;;22.13;75.43;101037.30;1727789;83;20977;-85
2021/08/17 00:18:36;;;;;;;12.78;6.17;;;;;;;22.02;75.91;101036.80;1727118;83;20925;-83
2021/08/17 00:21:04;;;;;;;11.05;6.33;;;;;;;21.91;76.33;101036.65;1727628;83;20874;-84
2021/08/17 00:23:32;;;;;;;10.95;6.33;;;;;;;21.83;76.71;101035.77;1727306;83;21036;-82
2021/08/17 00:26:01;;;;;;;9.15;6.40;;;;;;;21.76;77.01;101041.41;1727785;83;20962;-83
2021/08/17 00:28:29;;;;;;;8.43;5.97;;;;;;;21.69;77.24;101041.72;1727866;83;21576;-83
2021/08/17 00:30:58;;;;;;;9.70;6.40;;;;;;;21.61;77.55;101042.53;1727817;83;21853;-83
2021/08/17 00:33:26;;;;;;;8.58;6.03;;;;;;;21.55;77.83;101041.86;1727502;83;21708;-82
2021/08/17 00:35:54;;;;;;;10.72;5.90;;;;;;;21.52;78.04;101035.58;1727566;83;20984;-82
2021/08/17 00:38:21;;;;;;;10.45;6.37;;;;;;;21.49;78.39;101032.78;1728080;82;21148;-82
2021/08/17 00:40:49;;;;;;;12.82;6.70;;;;;;;21.48;78.58;101034.25;1702857;83;20985;-81
2021/08/17 00:43:20;;;;;;;11.55;6.67;;;;;;;21.45;78.82;101035.89;1728214;83;21017;-81
2021/08/17 00:45:48;;;;;;;14.73;6.78;;;;;;;21.42;79.07;101037.05;1728201;82;20953;-81
2021/08/17 00:48:18;;;;;;;9.40;6.42;;;;;;;21.41;79.31;101026.15;1729391;83;20926;-81
2021/08/17 00:50:47;;;;;;;12.13;6.30;;;;;;;21.41;79.58;101030.63;1730294;82;21131;-82
2021/08/17 00:53:15;;;;;;;9.13;6.10;;;;;;;21.41;79.69;101030.11;1729333;83;20898;-82
2021/08/17 00:55:57;;;;;;;8.08;6.05;;;;;;;21.41;79.86;101027.47;1729998;83;21444;-82
2021/08/17 00:58:26;;;;;;;9.18;5.67;;;;;;;21.40;79.88;101019.23;1689866;83;20978;-82
2021/08/17 01:00:56;;;;;;;10.45;6.75;;;;;;;21.38;80.05;101019.87;1710577;84;20903;-83
2021/08/17 01:06:39;;;;;;;12.45;6.40;;;;;;;21.33;80.37;101022.67;1687927;84;21112;-82
2021/08/17 01:09:20;;;;;;;8.95;5.90;;;;;;;21.35;80.62;101019.37;1710855;84;21548;-82
2021/08/17 01:11:56;;;;;;;11.08;6.20;;;;;;;21.33;80.80;101020.03;1708697;84;20924;-84
2021/08/17 01:14:22;;;;;;;9.95;6.78;;;;;;;21.31;80.91;101024.17;1709663;84;20955;-84
2021/08/17 01:16:53;;;;;;;12.18;7.35;;;;;;;21.30;80.92;101023.00;1710798;84;21185;-82
2021/08/17 01:19:21;;;;;;;10.45;6.47;;;;;;;21.27;80.82;101024.16;1710512;83;20958;-84
2021/08/17 01:22:05;;;;;;;9.10;6.62;;;;;;;21.24;80.67;101020.52;1705641;81;20920;31
2021/08/17 01:24:33;;;;;;;12.28;6.67;;;;;;;21.22;80.70;101022.99;1656088;86;21106;-83
2021/08/17 01:26:59;;;;;;;11.00;7.20;;;;;;;21.19;80.72;101022.80;1656394;86;21022;-84
2021/08/17 01:29:28;;;;;;;10.45;7.25;;;;;;;21.13;80.85;101021.30;1657722;86;21254;-84
2021/08/17 01:31:57;;;;;;;10.98;7.47;;;;;;;21.07;80.91;101026.70;1657648;86;20951;-84
2021/08/17 01:34:45;;;;;;;12.55;6.45;;;;;;;21.01;81.07;101022.06;1658095;86;20959;-83
2021/08/17 01:37:14;;;;;;;7.58;5.83;;;;;;;20.96;81.39;101014.61;1659433;86;20948;-82
2021/08/17 01:39:42;;;;;;;9.65;6.83;;;;;;;20.93;81.73;101015.45;1658915;86;20916;-82
2021/08/17 01:42:11;;;;;;;11.20;7.40;;;;;;;20.92;81.99;101012.47;1659037;86;21119;-82
2021/08/17 01:44:38;;;;;;;10.80;7.08;;;;;;;20.90;82.21;101011.29;1659253;86;20911;-81
2021/08/17 01:47:05;;;;;;;8.93;6.70;;;;;;;20.88;82.42;101009.31;1658614;86;21014;-84
2021/08/17 01:49:33;;;;;;;12.00;6.42;;;;;;;20.85;82.47;101010.13;1660009;86;21030;-81
2021/08/17 01:52:01;;;;;;;9.95;6.45;;;;;;;20.83;82.58;101005.02;1660147;86;20943;-83
2021/08/17 01:54:29;;;;;;;9.73;6.90;;;;;;;20.82;82.71;101007.80;1636810;86;21134;-82
2021/08/17 01:56:55;;;;;;;8.98;6.60;;;;;;;20.81;82.78;101004.34;1656391;86;20982;-82
2021/08/17 01:59:22;;;;;;;11.63;6.87;;;;;;;20.79;83.00;101011.59;1634225;86;20880;-81
2021/08/17 02:01:49;;;;;;;10.60;7.20;;;;;;;20.72;83.24;101003.97;1658286;86;20967;-81
2021/08/17 02:04:16;;;;;;;14.65;7.72;;;;;;;20.69;83.73;101002.14;1656722;86;20959;-79
2021/08/17 02:06:48;;;;;;;11.97;6.15;;;;;;;20.64;84.07;100998.67;1680816;78;21113;-82
2021/08/17 02:09:45;;;;;;;10.60;6.70;;;;;;;20.62;84.51;100995.84;1744028;82;20936;-82
2021/08/17 02:12:14;;;;;;;12.07;7.45;;;;;;;20.64;84.78;101000.48;1664273;85;21395;-81
2021/08/17 02:14:41;;;;;;;14.65;6.58;;;;;;;20.66;85.02;100999.33;1654911;86;21074;-82
2021/08/17 02:17:11;;;;;;;12.20;7.12;;;;;;;20.69;84.94;100999.50;1655231;86;21040;-80
2021/08/17 02:19:41;;;;;;;9.30;7.08;;;;;;;20.68;84.89;100996.55;1655832;86;20928;-83
2021/08/17 02:22:09;;;;;;;12.90;7.03;;;;;;;20.67;84.97;100991.77;1655551;86;21043;-81
2021/08/17 02:24:41;;;;;;;10.68;7.10;;;;;;;20.67;85.07;100990.94;1655104;86;21102;-84
2021/08/17 02:27:12;;;;;;;13.75;7.40;;;;;;;20.67;85.03;100993.57;1610164;86;21023;-83
2021/08/17 02:29:40;;;;;;;9.48;6.37;;;;;;;20.67;85.01;100990.94;1656370;86;20999;-83
2021/08/17 02:32:30;;;;;;;15.45;6.55;;;;;;;20.68;84.96;100988.12;1634786;86;21493;-83
2021/08/17 02:34:57;;;;;;;8.30;6.75;;;;;;;20.70;84.93;100988.81;1633735;86;20968;-83
2021/08/17 02:37:29;;;;;;;11.75;6.10;;;;;;;20.75;84.65;100989.14;1656460;86;20892;-83
2021/08/17 02:39:56;;;;;;;7.35;6.28;;;;;;;20.79;84.29;100989.66;1685912;82;21075;-83
2021/08/17 02:42:23;;;;;;;18.10;6.37;;;;;;;20.81;84.08;100991.63;1693312;84;20984;-82
2021/08/17 02:44:53;;;;;;;10.32;5.97;;;;;;;20.81;83.86;100989.83;1693646;84;21167;-82
2021/08/17 02:47:20;;;;;;;17.45;6.50;;;;;;;20.84;83.57;100986.03;1693285;83;20972;-81
2021/08/17 02:49:47;;;;;;;11.70;5.53;;;;;;;20.85;83.29;100987.70;1693270;84;20913;-81
2021/08/17 02:52:14;;;;;;;10.13;6.37;;;;;;;20.87;83.01;100990.51;1694044;84;21555;-81
2021/08/17 02:54:46;;;;;;;14.28;6.72;;;;;;;20.87;82.66;100997.59;1695446;84;20984;-82
2021/08/17 03:00:50;;;;;;;13.65;6.00;;;;;;;20.87;82.30;100993.63;1664573;84;20127;-83
2021/08/17 03:03:23;;;;;;;15.53;6.30;;;;;;;20.88;82.31;100990.02;1677271;85;20914;-83
2021/08/17 03:08:51;;;;;;;9.23;6.30;;;;;;;20.89;81.70;101000.42;1613669;82;22802;31
2021/08/17 03:11:46;;;;;;;9.85;5.67;;;;;;;20.88;81.43;100998.77;1660394;84;21196;-80
2021/08/17 03:14:15;;;;;;;10.63;5.75;;;;;;;20.90;81.27;100999.94;1671977;79;21101;-83
2021/08/17 03:20:34;;;;;;;14.58;6.80;;;;;;;20.93;80.65;101003.05;1730808;78;21021;-82
2021/08/17 03:23:14;;;;;;;18.00;7.20;;;;;;;20.91;80.09;101002.89;1770731;78;20938;31
2021/08/17 03:26:24;;;;;;;14.93;7.05;;;;;;;20.89;80.11;100998.28;1711059;78;21107;31
2021/08/17 03:28:54;;;;;;;14.15;6.92;;;;;;;20.88;80.18;100996.61;1625996;87;21048;-83
2021/08/17 03:31:22;;;;;;;18.87;5.55;;;;;;;20.88;80.45;101001.41;1630957;86;20933;-82
2021/08/17 03:33:51;;;;;;;12.03;6.00;;;;;;;20.90;80.59;101000.73;1629951;88;21001;-79
2021/08/17 03:36:19;;;;;;;12.53;5.65;;;;;;;20.90;80.62;101003.37;1630380;88;21022;-79
2021/08/17 03:38:46;;;;;;;10.90;6.33;;;;;;;20.90;80.58;101003.37;1576932;91;21159;-78
2021/08/17 03:41:14;;;;;;;13.95;7.50;;;;;;;20.91;80.61;101007.67;1602589;89;21073;-81
2021/08/17 03:43:42;;;;;;;16.20;8.53;;;;;;;20.93;80.51;101006.22;1625905;88;20894;-81
2021/08/17 03:46:08;;;;;;;28.52;9.93;;;;;;;20.94;80.11;101007.84;1630992;88;21021;-82
2021/08/17 03:48:36;;;;;;;37.38;12.50;;;;;;;20.96;79.76;101013.29;1630943;88;20993;-82
2021/08/17 03:51:04;;;;;;;30.45;12.75;;;;;;;20.97;79.17;101012.31;1630402;88;21121;-81
2021/08/17 03:53:34;;;;;;;27.27;12.58;;;;;;;20.94;78.96;101019.72;1631385;88;21073;-82
2021/08/17 03:56:01;;;;;;;29.32;12.05;;;;;;;20.90;79.08;101024.48;1632128;88;20993;-82
2021/08/17 03:58:28;;;;;;;17.10;9.50;;;;;;;20.89;79.40;101018.89;1630928;87;21598;-82
2021/08/17 04:00:56;;;;;;;23.02;9.95;;;;;;;20.88;79.65;101018.55;1630587;88;21008;-82
2021/08/17 04:03:25;;;;;;;16.95;8.40;;;;;;;20.89;79.93;101016.26;1631194;86;21150;-82
2021/08/17 04:05:52;;;;;;;23.22;10.30;;;;;;;20.93;80.13;101018.09;1631300;88;20981;-83
2021/08/17 04:08:20;;;;;;;18.30;8.75;;;;;;;20.97;80.25;101015.44;1631941;88;20985;-83
2021/08/17 04:10:51;;;;;;;18.55;8.05;;;;;;;21.00;80.21;101005.88;1630905;88;22332;-83
2021/08/17 04:13:21;;;;;;;13.55;7.60;;;;;;;21.05;80.24;101008.89;1631970;82;20969;-82
2021/08/17 04:15:47;;;;;;;15.40;7.83;;;;;;;21.08;80.02;101005.44;1630808;88;21116;-80
2021/08/17 04:18:15;;;;;;;15.00;7.78;;;;;;;21.13;79.87;101004.14;1631584;82;21067;-81
2021/08/17 04:20:42;;;;;;;13.28;7.85;;;;;;;21.17;79.72;101000.20;1578535;91;21062;-80
2021/08/17 04:23:10;;;;;;;17.62;6.55;;;;;;;21.22;79.75;101004.00;1603011;89;20998;-81
2021/08/17 04:25:36;;;;;;;17.90;7.00;;;;;;;21.26;79.57;101003.19;1625881;88;20998;-82
2021/08/17 04:28:05;;;;;;;15.13;7.03;;;;;;;21.29;79.31;101001.05;1635522;87;21142;-79
2021/08/17 04:30:33;;;;;;;16.10;6.55;;;;;;;21.31;79.06;100999.58;1642466;87;21564;-79
2021/08/17 04:33:02;;;;;;;18.25;6.45;;;;;;;21.36;78.88;101002.55;1642987;87;21444;-82
2021/08/17 04:35:31;;;;;;;8.65;5.70;;;;;;;21.40;78.72;101006.03;1642522;87;20981;-78
2021/08/17 04:37:58;;;;;;;11.97;5.85;;;;;;;21.46;77.62;101011.98;1642433;87;21058;-78
2021/08/17 04:40:24;;;;;;;7.97;5.78;;;;;;;21.54;76.64;101008.02;1642445;87;21115;-78
2021/08/17 04:42:51;;;;;;;8.95;5.72;;;;;;;21.61;75.39;101016.12;1642530;87;20918;-77
2021/08/17 04:45:18;;;;;;;15.53;6.53;;;;;;;21.69;74.18;101014.81;1642531;87;21046;-82
2021/08/17 04:47:49;;;;;;;13.22;6.28;;;;;;;21.78;73.64;101022.23;1642519;87;21576;-78
2021/08/17 04:50:17;;;;;;;12.82;5.78;;;;;;;21.83;73.51;101020.75;1642502;87;20915;-80
2021/08/17 04:52:46;;;;;;;6.55;4.83;;;;;;;21.89;73.23;101025.40;1642415;87;21798;-78
2021/08/17 04:55:14;;;;;;;12.23;6.10;;;;;;;21.95;72.49;101023.41;1642417;87;20914;-81
2021/08/17 04:57:54;;;;;;;10.98;5.67;;;;;;;22.05;71.67;101019.28;1642368;87;21461;-77
2021/08/17 05:00:24;;;;;;;7.17;5.62;;;;;;;22.14;70.71;101028.88;1642549;87;21026;-83
2021/08/17 05:02:51;;;;;;;10.00;5.72;;;;;;;22.23;69.92;101022.58;1642625;87;20998;-80
2021/08/17 05:05:19;;;;;;;9.68;5.33;;;;;;;22.31;69.47;101017.76;1642359;87;21976;-80
2021/08/17 05:07:49;;;;;;;8.28;5.12;;;;;;;22.36;69.54;101022.89;1642472;87;21006;-75
2021/08/17 05:10:20;;;;;;;10.43;5.10;;;;;;;22.43;68.51;101019.08;1642519;87;21065;-80
2021/08/17 05:12:47;;;;;;;8.45;5.17;;;;;;;22.50;68.34;101027.96;1642454;87;21519;-80
2021/08/17 05:15:15;;;;;;;11.68;5.65;;;;;;;22.55;68.42;101034.91;1642420;87;21032;-79
2021/08/17 05:17:44;;;;;;;12.45;5.33;;;;;;;22.59;68.44;101033.59;1642585;87;21626;-79
2021/08/17 05:20:12;;;;;;;17.10;4.95;;;;;;;22.63;68.29;101035.70;1642390;87;20970;-79
2021/08/17 05:22:40;;;;;;;14.07;5.40;;;;;;;22.71;67.49;101027.45;1642477;87;20970;-82
2021/08/17 05:25:08;;;;;;;12.20;6.12;;;;;;;22.79;67.10;101032.70;1642412;87;21013;-79
2021/08/17 05:27:36;;;;;;;17.45;5.75;;;;;;;22.86;66.53;101033.17;1642557;87;21056;-81
2021/08/17 05:30:06;;;;;;;6.80;4.65;;;;;;;22.95;65.58;101035.28;1645103;87;21770;-79
2021/08/17 05:32:34;;;;;;;6.35;4.40;;;;;;;23.03;64.47;101036.59;1645134;87;20922;-78
2021/08/17 05:35:02;;;;;;;6.72;4.95;;;;;;;23.11;61.89;101040.02;1644894;87;21592;-81
2021/08/17 05:37:28;;;;;;;7.17;5.05;;;;;;;23.22;61.18;101039.30;1644830;87;21026;-77
2021/08/17 05:39:55;;;;;;;4.83;3.80;;;;;;;23.30;60.09;101045.37;1644975;87;21108;-79
2021/08/17 05:42:23;;;;;;;4.75;4.08;;;;;;;23.39;58.48;101040.34;1644927;87;21107;-79
2021/08/17 05:44:50;;;;;;;6.15;4.22;;;;;;;23.47;58.00;101043.48;1644740;87;21457;-77
2021/08/17 05:47:17;;;;;;;5.22;4.20;;;;;;;23.53;57.74;101044.10;1644927;87;21021;-76
2021/08/17 05:49:45;;;;;;;6.70;4.70;;;;;;;23.59;57.83;101042.08;1645050;87;21481;-77
2021/08/17 05:52:13;;;;;;;8.78;4.80;;;;;;;23.64;57.63;101041.06;1644970;87;21430;-76
2021/08/17 05:54:40;;;;;;;6.53;4.75;;;;;;;23.71;57.15;101045.95;1644862;87;21098;-77
2021/08/17 05:57:09;;;;;;;11.25;4.72;;;;;;;23.76;57.08;101044.11;1645025;87;20986;-80
2021/08/17 05:59:36;;;;;;;9.53;5.28;;;;;;;23.80;56.36;101044.92;1644987;87;21060;-76
2021/08/17 06:02:04;;;;;;;9.68;4.85;;;;;;;23.86;56.83;101047.35;1644816;87;21551;-78
2021/08/17 06:04:32;;;;;;;7.10;4.28;;;;;;;23.91;57.18;101044.48;1644759;87;21045;-81
2021/08/17 06:06:59;;;;;;;10.50;4.87;;;;;;;23.98;56.71;101045.42;1620796;87;21124;-76
2021/08/17 06:09:26;;;;;;;10.10;4.30;;;;;;;24.06;56.74;101045.87;1644324;87;21037;-77
2021/08/17 06:11:57;;;;;;;8.48;4.97;;;;;;;24.13;56.23;101045.48;1644684;87;21279;-78
2021/08/17 06:14:24;;;;;;;7.80;4.87;;;;;;;24.18;55.66;101045.28;1644874;87;21037;-76
2021/08/17 06:16:51;;;;;;;9.85;4.50;;;;;;;24.22;55.49;101039.92;1644780;87;21632;-79
2021/08/17 06:19:19;;;;;;;7.90;4.80;;;;;;;24.28;54.89;101045.03;1645027;87;21950;-77
2021/08/17 06:21:48;;;;;;;11.25;4.60;;;;;;;24.31;54.71;101045.16;1644597;87;21064;-79
2021/08/17 06:24:15;;;;;;;10.15;4.15;;;;;;;24.34;53.67;101045.62;1644769;87;21489;-73
2021/08/17 06:26:42;;;;;;;9.48;4.40;;;;;;;24.45;50.72;101049.14;1644942;87;21524;-77
2021/08/17 06:29:09;;;;;;;9.18;4.10;;;;;;;24.57;50.51;101054.31;1633274;86;21578;-76
2021/08/17 06:31:37;;;;;;;9.65;5.05;;;;;;;24.68;50.45;101051.72;1628644;86;21089;-82
2021/08/17 06:34:05;;;;;;;8.15;4.22;;;;;;;24.75;51.01;101055.30;1637477;86;20879;-78
2021/08/17 06:36:36;;;;;;;10.35;4.97;;;;;;;24.81;51.45;101051.91;1655948;86;20993;-77
2021/08/17 06:39:04;;;;;;;9.28;4.50;;;;;;;24.88;51.54;101050.70;1656286;86;20981;-77
2021/08/17 06:41:31;;;;;;;11.38;4.50;;;;;;;24.99;51.83;101054.20;1655805;85;21502;-80
2021/08/17 06:44:00;;;;;;;9.05;4.37;;;;;;;25.09;51.93;101055.56;1654937;86;21141;-81
2021/08/17 06:46:27;;;;;;;8.50;4.55;;;;;;;25.17;52.46;101049.33;1655215;86;20902;-82
2021/08/17 06:48:55;;;;;;;13.13;9.73;;;;;;;25.22;52.60;101053.06;1654836;86;21484;-83
2021/08/17 06:51:21;;;;;;;5.90;4.67;;;;;;;25.27;52.58;101053.84;1655841;86;21000;-78
2021/08/17 06:53:48;;;;;;;6.35;4.20;;;;;;;25.34;49.91;101049.91;1656132;86;20988;-78
2021/08/17 06:56:14;;;;;;;12.45;4.03;;;;;;;25.40;49.04;101053.97;1656156;86;21474;-80
2021/08/17 06:58:41;;;;;;;10.98;3.87;;;;;;;25.47;49.32;101048.73;1656190;86;21783;-81
2021/08/17 07:01:08;;;;;;;9.03;4.10;;;;;;;25.52;49.09;101049.03;1655024;86;21041;-79
2021/08/17 07:03:36;;;;;;;21.80;4.75;;;;;;;25.60;49.17;101046.23;1654561;86;21028;-81
2021/08/17 07:06:03;;;;;;;4.40;3.72;;;;;;;25.67;48.10;101048.46;1654676;86;21460;-72
2021/08/17 07:08:33;;;;;;;7.65;3.98;;;;;;;25.77;44.95;101041.00;1654519;86;48619;-81
2021/08/17 07:11:01;;;;;;;6.80;4.05;;;;;;;25.89;45.58;101047.44;1654459;86;21001;-80
2021/08/17 07:13:28;;;;;;;6.33;4.03;;;;;;;25.95;45.55;101045.84;1654586;86;21014;-79
2021/08/17 07:16:00;;;;;;;10.30;4.62;;;;;;;26.04;45.59;101056.66;1654636;86;21057;-84
2021/08/17 07:18:28;;;;;;;13.90;4.65;;;;;;;26.13;45.36;101060.31;1654801;86;20996;-71
2021/08/17 07:20:56;;;;;;;9.88;5.25;;;;;;;26.19;45.44;101060.94;1654704;86;21106;-79
2021/08/17 07:23:25;;;;;;;17.80;5.47;;;;;;;26.23;44.78;101050.70;1654494;86;20906;-74
2021/08/17 07:25:53;;;;;;;11.88;4.10;;;;;;;26.26;44.81;101051.67;1654511;86;20994;-78
2021/08/17 07:28:20;;;;;;;9.48;4.53;;;;;;;26.34;44.84;101058.16;1654865;85;21496;-82
2021/08/17 07:30:48;;;;;;;13.80;4.65;;;;;;;26.40;44.92;101043.25;1654707;86;21009;-83
2021/08/17 07:33:16;;;;;;;7.00;4.03;;;;;;;26.49;44.40;101052.72;1654773;86;21127;-74
2021/08/17 07:35:45;;;;;;;7.70;4.75;;;;;;;26.60;43.58;101050.86;1655576;86;20937;-87
2021/08/17 07:38:12;;;;;;;16.02;4.60;;;;;;;26.71;43.83;101046.30;1654839;86;20976;-81
2021/08/17 07:40:41;;;;;;;11.40;4.72;;;;;;;26.80;43.52;101054.47;1655212;86;20978;-80
2021/08/17 07:43:08;;;;;;;12.07;4.33;;;;;;;26.85;44.31;101055.22;1655250;86;21116;-78
2021/08/17 07:45:37;;;;;;;12.07;4.58;;;;;;;26.95;45.27;101051.69;1654699;86;21537;-80
2021/08/17 07:48:08;;;;;;;9.65;4.53;;;;;;;27.05;45.42;101050.81;1654247;86;21091;-79
2021/08/17 07:50:38;;;;;;;10.78;4.20;;;;;;;27.13;45.65;101049.29;1653456;86;21020;-81
2021/08/17 07:53:07;;;;;;;10.48;5.15;;;;;;;27.20;45.61;101048.81;1653671;86;21555;-80
2021/08/17 07:55:39;;;;;;;;;;;;;;;27.24;45.10;101046.89;1657186;86;20910;-76
2021/08/17 07:58:05;;;;;;;9.93;4.75;;;;;;;27.30;44.88;101040.75;1680387;84;21136;-80
2021/08/17 08:00:34;;;;;;;9.83;4.33;;;;;;;27.37;45.56;101043.44;1680443;85;20959;-77
2021/08/17 08:03:01;;;;;;;6.05;4.42;;;;;;;27.43;46.03;101041.33;1680892;85;21092;-79
2021/08/17 08:05:28;;;;;;;9.68;4.40;;;;;;;27.51;45.45;101037.13;1680462;85;21549;-77
2021/08/17 08:07:55;;;;;;;11.00;4.80;;;;;;;27.56;45.66;101029.36;1680449;85;20939;-80
2021/08/17 08:10:21;;;;;;;7.40;4.55;;;;;;;27.61;45.51;101039.40;1680890;85;21129;-80
2021/08/17 08:12:49;;;;;;;6.17;4.20;;;;;;;27.66;45.18;101025.79;1680479;85;20943;-83
2021/08/17 08:15:17;;;;;;;9.18;5.78;;;;;;;27.70;45.44;101024.33;1681000;84;21515;-76
2021/08/17 08:17:44;;;;;;;11.78;5.10;;;;;;;27.78;45.05;101025.99;1681466;85;21465;-84
2021/08/17 08:20:13;;;;;;;8.40;4.65;;;;;;;27.86;44.69;101021.77;1681930;84;20931;-79
2021/08/17 08:22:44;;;;;;;7.58;4.50;;;;;;;27.93;44.48;101025.27;1682341;84;20903;-76
2021/08/17 08:25:12;;;;;;;6.77;4.67;;;;;;;28.02;44.39;101021.36;1682349;84;20899;-77
2021/08/17 08:27:40;;;;;;;4.90;4.08;;;;;;;28.08;43.96;101021.11;1680785;85;20963;-77
2021/08/17 08:30:10;;;;;;;8.23;4.30;;;;;;;28.14;43.86;101020.28;1671968;84;20967;-72
2021/08/17 08:32:37;;;;;;;8.60;4.15;;;;;;;28.19;43.60;101017.80;1668128;86;21014;-79
2021/08/17 08:35:09;;;;;;;11.85;4.53;;;;;;;28.23;43.47;101012.36;1649404;87;21128;-78
2021/08/17 08:37:37;;;;;;;9.87;4.13;;;;;;;28.28;43.62;101008.53;1672527;85;20987;-74
2021/08/17 08:40:08;;;;;;;14.85;4.80;;;;;;;28.36;43.35;101010.49;1672104;85;21061;-80
2021/08/17 08:42:36;;;;;;;11.65;5.08;;;;;;;28.43;42.96;101006.98;1672342;85;20967;-77
2021/08/17 08:45:04;;;;;;;11.70;4.83;;;;;;;28.51;42.75;101004.89;1672131;85;20932;-78
2021/08/17 08:47:34;;;;;;;10.20;4.37;;;;;;;28.61;42.80;101003.95;1672004;84;20990;-77
2021/08/17 08:50:02;;;;;;;12.10;4.33;;;;;;;28.73;42.17;101012.97;1672070;85;20939;-77
2021/08/17 08:52:29;;;;;;;7.10;4.42;;;;;;;28.83;41.85;100997.83;1672062;85;21018;-78
2021/08/17 08:54:57;;;;;;;6.78;4.62;;;;;;;28.92;41.71;100998.39;1672069;84;21487;-75
2021/08/17 08:57:23;;;;;;;18.60;5.20;;;;;;;28.98;41.46;100991.69;1672209;85;21490;-77
2021/08/17 08:59:51;;;;;;;9.15;4.30;;;;;;;29.05;41.46;100992.48;1671857;85;21596;-77
2021/08/17 09:02:18;;;;;;;12.33;4.40;;;;;;;29.13;41.63;100988.75;1672248;85;21532;-79
2021/08/17 09:04:56;;;;;;;9.35;4.75;;;;;;;29.26;41.45;100991.38;1672101;85;21034;-77
2021/08/17 09:07:42;;;;;;;6.78;4.17;;;;;;;29.38;40.75;100992.31;1672159;85;21019;-74
2021/08/17 09:10:16;;;;;;;10.10;4.05;;;;;;;29.45;41.12;100990.94;1672212;85;20959;-80
2021/08/17 09:12:49;;;;;;;7.12;4.50;;;;;;;29.56;41.00;100995.57;1672327;85;21110;-78
2021/08/17 09:15:31;;;;;;;9.20;3.90;;;;;;;29.68;40.77;100985.80;1671872;84;20991;-81
2021/08/17 09:18:10;;;;;;;8.45;4.40;;;;;;;29.79;40.08;100986.45;1671251;85;20998;-78
2021/08/17 09:20:43;;;;;;;7.90;4.47;;;;;;;29.84;40.12;100984.77;1672110;84;21591;-76
2021/08/17 09:23:32;;;;;;;9.05;4.67;;;;;;;29.88;39.57;100991.33;1672302;85;20994;-79
2021/08/17 09:26:04;;;;;;;7.12;3.85;;;;;;;29.91;39.75;100975.34;1672352;85;21290;-74
2021/08/17 09:28:34;;;;;;;5.70;3.92;;;;;;;29.93;39.45;100979.44;1669828;85;20868;-75
2021/08/17 09:31:04;;;;;;;7.58;4.30;;;;;;;29.94;39.73;100978.92;1677501;85;20951;-76
2021/08/17 09:33:38;;;;;;;6.97;3.92;;;;;;;30.02;39.57;100977.32;1677911;85;21049;-75
2021/08/17 09:36:08;;;;;;;11.18;4.45;;;;;;;30.13;38.97;100979.77;1677618;84;21544;-79
2021/08/17 09:38:36;;;;;;;14.93;4.60;;;;;;;30.20;38.67;100972.50;1677848;84;21114;-78
2021/08/17 09:41:18;;;;;;;11.00;4.17;;;;;;;30.29;38.38;100983.20;1677546;85;20997;-78
2021/08/17 09:44:02;;;;;;;5.90;3.60;;;;;;;30.34;37.68;100977.50;1673347;85;20902;-75
2021/08/17 09:46:34;;;;;;;7.00;4.12;;;;;;;30.34;37.08;100973.48;1670044;85;21002;-78
2021/08/17 09:49:27;;;;;;;19.23;5.10;;;;;;;30.36;37.46;100970.05;1671519;85;21444;-75
2021/08/17 09:51:54;;;;;;;;;;;;;;;30.47;37.37;100971.73;1674789;85;21109;-77
2021/08/17 09:54:25;;;;;;;8.73;4.30;;;;;;;30.57;36.69;100971.48;1672211;85;20119;-76
2021/08/17 09:57:02;;;;;;;5.42;4.17;;;;;;;30.84;36.18;100974.66;1672234;85;20954;-74
2021/08/17 09:59:32;;;;;;;6.50;3.90;;;;;;;31.92;34.19;100981.50;1671318;84;21515;-81
2021/08/17 10:02:01;;;;;;;7.65;4.20;;;;;;;33.35;32.69;100972.09;1672398;85;21428;-77
2021/08/17 10:04:27;;;;;;;11.55;4.42;;;;;;;34.79;30.02;100972.05;1672646;85;21458;-75
2021/08/17 10:06:59;;;;;;;9.98;4.08;;;;;;;35.95;28.67;100963.13;1674508;84;21555;-77
2021/08/17 10:09:28;;;;;;;8.00;3.83;;;;;;;36.84;27.33;100973.00;1677646;85;21029;-80
2021/08/17 10:11:55;;;;;;;7.47;3.62;;;;;;;37.65;25.35;100968.52;1677847;84;21453;-76
2021/08/17 10:14:23;;;;;;;15.85;4.08;;;;;;;38.48;24.12;100966.16;1677824;84;20995;-77
2021/08/17 10:16:50;;;;;;;5.12;3.85;;;;;;;38.96;23.42;100965.33;1677627;85;21126;-75
2021/08/17 10:19:24;;;;;;;14.07;4.10;;;;;;;38.99;22.61;100964.80;1677636;84;20997;-78
2021/08/17 10:21:55;;;;;;;8.28;3.45;;;;;;;39.03;22.65;100967.73;1677831;84;20954;-75
2021/08/17 10:24:34;;;;;;;8.53;3.40;;;;;;;39.14;21.94;100961.96;1677817;84;21526;-77
2021/08/17 10:27:25;;;;;;;7.95;3.50;;;;;;;38.84;22.55;100953.20;1677589;84;21689;-73
2021/08/17 10:30:25;;;;;;;9.53;3.58;;;;;;;38.38;23.41;100957.52;1677590;85;21161;-82
2021/08/17 10:33:04;;;;;;;10.40;3.65;;;;;;;37.64;23.18;100957.41;1680304;84;21571;-78
2021/08/17 10:35:52;;;;;;;11.55;3.80;;;;;;;36.96;24.22;100964.91;1669962;85;20935;-81
2021/08/17 10:38:27;;;;;;;10.25;4.00;;;;;;;36.46;24.35;100963.39;1685469;84;20999;-82
2021/08/17 10:41:02;;;;;;;20.40;4.35;;;;;;;35.92;24.66;100950.67;1676214;85;21027;-77
2021/08/17 10:43:37;;;;;;;9.38;4.03;;;;;;;35.53;24.98;100952.80;1685613;84;21136;-76
2021/08/17 10:46:06;;;;;;;4.85;3.33;;;;;;;34.98;24.58;100959.31;1676046;85;20903;-79
2021/08/17 10:48:54;;;;;;;9.35;3.47;;;;;;;34.34;25.93;100955.59;1653980;85;21639;-78
2021/08/17 10:51:25;;;;;;;4.95;3.17;;;;;;;33.98;25.45;100952.13;1710995;83;20918;-82
2021/08/17 10:54:06;;;;;;;6.50;3.22;;;;;;;33.71;25.73;100953.86;1716218;83;21558;-75
2021/08/17 10:56:36;;;;;;;11.03;3.72;;;;;;;33.45;26.68;100941.33;1694257;84;21962;-80
2021/08/17 10:59:03;;;;;;;7.85;3.55;;;;;;;33.23;27.26;100947.67;1676114;85;21583;-76
2021/08/17 11:01:39;;;;;;;11.12;3.10;;;;;;;33.21;27.44;100951.14;1676072;85;21453;-77
2021/08/17 11:04:17;;;;;;;5.12;3.45;;;;;;;33.23;27.22;100944.98;1670869;85;21088;-78
2021/08/17 11:06:53;;;;;;;9.85;3.37;;;;;;;33.25;26.82;100948.27;1694198;84;21089;-73
2021/08/17 11:09:39;;;;;;;10.58;4.00;;;;;;;33.25;26.44;100937.50;1668474;85;21490;-78
2021/08/17 11:12:10;;;;;;;4.75;3.08;;;;;;;33.19;26.87;100937.10;1665460;86;21061;-81
2021/08/17 11:14:39;;;;;;;4.65;3.37;;;;;;;33.14;27.16;100939.72;1676027;85;21568;-74
2021/08/17 11:17:09;;;;;;;3.75;3.22;;;;;;;33.12;26.91;100939.98;1676375;85;21078;-81
2021/08/17 11:19:49;;;;;;;10.53;4.85;;;;;;;32.97;27.59;100932.41;1676030;85;21585;-77
2021/08/17 11:22:27;;;;;;;7.10;3.83;;;;;;;32.94;28.14;100930.20;1674121;85;21541;-78
2021/08/17 11:24:59;;;;;;;9.15;3.52;;;;;;;33.05;28.02;100930.39;1668379;85;20947;-81
2021/08/17 11:27:41;;;;;;;8.60;3.50;;;;;;;33.05;28.07;100934.42;1672559;84;20993;-75
2021/08/17 11:30:12;;;;;;;6.90;3.47;;;;;;;32.97;28.06;100935.62;1672868;85;21081;-74
2021/08/17 11:32:51;;;;;;;6.30;3.62;;;;;;;32.94;26.95;100922.66;1665120;86;21027;-77
2021/08/17 11:35:23;;;;;;;4.45;3.12;;;;;;;32.76;27.70;100925.56;1668869;85;21242;-76
2021/08/17 11:37:52;;;;;;;5.12;3.27;;;;;;;32.63;28.01;100921.29;1670417;85;21062;-77
2021/08/17 11:40:24;;;;;;;7.08;3.40;;;;;;;32.56;28.18;100927.81;1670455;84;21016;-78
2021/08/17 11:42:56;;;;;;;7.15;3.05;;;;;;;32.58;27.02;100922.52;1671259;85;20903;-77
2021/08/17 11:45:29;;;;;;;10.05;3.62;;;;;;;32.55;27.34;100920.28;1671186;85;20988;-74
2021/08/17 11:47:59;;;;;;;27.98;4.15;;;;;;;32.56;27.77;100925.95;1671450;85;21544;-75
2021/08/17 11:50:25;;;;;;;8.83;3.70;;;;;;;32.62;27.94;100919.65;1700996;83;20873;-73